sensor_id;sensor_type;location;lat;lon;timestamp;temperature;humidity
43999;DHT22;51319;52.162;5.302;2022-08-21T00:01:35;15.10;89.30
43999;DHT22;51319;52.162;5.302;2022-08-21T00:04:06;15.00;89.30
43999;DHT22;51319;52.162;5.302;2022-08-21T00:06:33;15.10;89.60
43999;DHT22;51319;52.162;5.302;2022-08-21T00:09:01;15.00;89.60
43999;DHT22;51319;52.162;5.302;2022-08-21T00:11:33;15.00;89.60
43999;DHT22;51319;52.162;5.302;2022-08-21T00:14:01;15.00;89.80
43999;DHT22;51319;52.162;5.302;2022-08-21T00:16:27;15.00;89.90
43999;DHT22;51319;52.162;5.302;2022-08-21T00:18:53;15.00;90.00
43999;DHT22;51319;52.162;5.302;2022-08-21T00:21:20;15.00;90.00
43999;DHT22;51319;52.162;5.302;2022-08-21T00:23:46;14.90;90.00
43999;DHT22;51319;52.162;5.302;2022-08-21T00:26:13;14.90;90.00
43999;DHT22;51319;52.162;5.302;2022-08-21T00:28:39;14.90;90.10
43999;DHT22;51319;52.162;5.302;2022-08-21T00:31:06;14.90;90.10
43999;DHT22;51319;52.162;5.302;2022-08-21T00:33:32;14.90;90.20
43999;DHT22;51319;52.162;5.302;2022-08-21T00:35:59;14.90;90.20
43999;DHT22;51319;52.162;5.302;2022-08-21T00:38:25;14.80;90.20
43999;DHT22;51319;52.162;5.302;2022-08-21T00:40:55;14.80;90.20
43999;DHT22;51319;52.162;5.302;2022-08-21T00:43:30;14.80;90.30
43999;DHT22;51319;52.162;5.302;2022-08-21T00:45:57;14.80;90.30
43999;DHT22;51319;52.162;5.302;2022-08-21T00:48:24;14.80;90.30
43999;DHT22;51319;52.162;5.302;2022-08-21T00:53:29;14.90;90.40
43999;DHT22;51319;52.162;5.302;2022-08-21T00:55:57;14.90;90.40
43999;DHT22;51319;52.162;5.302;2022-08-21T00:58:30;14.90;90.40
43999;DHT22;51319;52.162;5.302;2022-08-21T01:00:59;14.90;90.40
43999;DHT22;51319;52.162;5.302;2022-08-21T01:03:34;14.90;90.50
43999;DHT22;51319;52.162;5.302;2022-08-21T01:06:03;14.90;90.50
43999;DHT22;51319;52.162;5.302;2022-08-21T01:08:31;14.90;90.50
43999;DHT22;51319;52.162;5.302;2022-08-21T01:10:58;14.90;90.50
43999;DHT22;51319;52.162;5.302;2022-08-21T01:13:29;14.90;90.50
43999;DHT22;51319;52.162;5.302;2022-08-21T01:15:58;14.90;90.50
43999;DHT22;51319;52.162;5.302;2022-08-21T01:18:26;14.90;90.50
43999;DHT22;51319;52.162;5.302;2022-08-21T01:21:02;14.90;90.50
43999;DHT22;51319;52.162;5.302;2022-08-21T01:23:29;14.90;90.60
43999;DHT22;51319;52.162;5.302;2022-08-21T01:25:55;14.90;90.60
43999;DHT22;51319;52.162;5.302;2022-08-21T01:28:22;14.90;90.60
43999;DHT22;51319;52.162;5.302;2022-08-21T01:30:51;14.90;90.70
43999;DHT22;51319;52.162;5.302;2022-08-21T01:33:19;14.90;90.70
43999;DHT22;51319;52.162;5.302;2022-08-21T01:35:45;14.90;90.70
43999;DHT22;51319;52.162;5.302;2022-08-21T01:38:12;14.90;90.70
43999;DHT22;51319;52.162;5.302;2022-08-21T01:40:38;14.90;90.70
43999;DHT22;51319;52.162;5.302;2022-08-21T01:43:04;14.90;90.70
43999;DHT22;51319;52.162;5.302;2022-08-21T01:45:31;14.90;90.70
43999;DHT22;51319;52.162;5.302;2022-08-21T01:47:57;14.90;90.70
43999;DHT22;51319;52.162;5.302;2022-08-21T01:50:23;14.90;90.70
43999;DHT22;51319;52.162;5.302;2022-08-21T01:52:50;14.90;90.70
43999;DHT22;51319;52.162;5.302;2022-08-21T01:55:18;14.90;90.70
43999;DHT22;51319;52.162;5.302;2022-08-21T01:57:46;14.90;90.80
43999;DHT22;51319;52.162;5.302;2022-08-21T02:00:14;14.90;90.80
43999;DHT22;51319;52.162;5.302;2022-08-21T02:02:41;14.90;90.80
43999;DHT22;51319;52.162;5.302;2022-08-21T02:05:08;14.90;90.80
43999;DHT22;51319;52.162;5.302;2022-08-21T02:07:40;14.80;90.80
43999;DHT22;51319;52.162;5.302;2022-08-21T02:10:08;14.80;90.80
43999;DHT22;51319;52.162;5.302;2022-08-21T02:12:35;14.80;90.90
43999;DHT22;51319;52.162;5.302;2022-08-21T02:15:03;14.80;90.90
43999;DHT22;51319;52.162;5.302;2022-08-21T02:17:44;14.80;90.90
43999;DHT22;51319;52.162;5.302;2022-08-21T02:20:25;14.80;90.90
43999;DHT22;51319;52.162;5.302;2022-08-21T02:22:52;14.70;90.90
43999;DHT22;51319;52.162;5.302;2022-08-21T02:25:20;14.70;90.90
43999;DHT22;51319;52.162;5.302;2022-08-21T02:27:47;14.80;91.00
43999;DHT22;51319;52.162;5.302;2022-08-21T02:30:24;14.80;91.00
43999;DHT22;51319;52.162;5.302;2022-08-21T02:32:51;14.80;91.10
43999;DHT22;51319;52.162;5.302;2022-08-21T02:35:18;14.80;91.00
43999;DHT22;51319;52.162;5.302;2022-08-21T02:37:51;14.80;91.00
43999;DHT22;51319;52.162;5.302;2022-08-21T02:40:19;14.80;91.10
43999;DHT22;51319;52.162;5.302;2022-08-21T02:42:46;14.80;91.10
43999;DHT22;51319;52.162;5.302;2022-08-21T02:45:14;14.70;91.00
43999;DHT22;51319;52.162;5.302;2022-08-21T02:47:48;14.70;91.10
43999;DHT22;51319;52.162;5.302;2022-08-21T02:50:22;14.70;91.20
43999;DHT22;51319;52.162;5.302;2022-08-21T02:52:51;14.70;91.10
43999;DHT22;51319;52.162;5.302;2022-08-21T02:55:22;14.60;91.20
43999;DHT22;51319;52.162;5.302;2022-08-21T02:57:51;14.60;91.20
43999;DHT22;51319;52.162;5.302;2022-08-21T03:00:19;14.60;91.30
43999;DHT22;51319;52.162;5.302;2022-08-21T03:02:48;14.60;91.30
43999;DHT22;51319;52.162;5.302;2022-08-21T03:05:14;14.60;91.30
43999;DHT22;51319;52.162;5.302;2022-08-21T03:07:42;14.60;91.40
43999;DHT22;51319;52.162;5.302;2022-08-21T03:10:09;14.50;91.40
43999;DHT22;51319;52.162;5.302;2022-08-21T03:12:35;14.50;91.50
43999;DHT22;51319;52.162;5.302;2022-08-21T03:15:05;14.50;91.50
43999;DHT22;51319;52.162;5.302;2022-08-21T03:17:33;14.50;91.50
43999;DHT22;51319;52.162;5.302;2022-08-21T03:20:00;14.50;91.50
43999;DHT22;51319;52.162;5.302;2022-08-21T03:22:27;14.50;91.60
43999;DHT22;51319;52.162;5.302;2022-08-21T03:24:56;14.50;91.60
43999;DHT22;51319;52.162;5.302;2022-08-21T03:27:23;14.50;91.70
43999;DHT22;51319;52.162;5.302;2022-08-21T03:29:50;14.50;91.70
43999;DHT22;51319;52.162;5.302;2022-08-21T03:32:17;14.50;91.70
43999;DHT22;51319;52.162;5.302;2022-08-21T03:34:43;14.50;91.70
43999;DHT22;51319;52.162;5.302;2022-08-21T03:37:09;14.40;91.70
43999;DHT22;51319;52.162;5.302;2022-08-21T03:39:36;14.50;91.80
43999;DHT22;51319;52.162;5.302;2022-08-21T03:42:03;14.40;91.80
43999;DHT22;51319;52.162;5.302;2022-08-21T03:44:31;14.40;91.80
43999;DHT22;51319;52.162;5.302;2022-08-21T03:46:57;14.40;91.80
43999;DHT22;51319;52.162;5.302;2022-08-21T03:49:25;14.40;91.90
43999;DHT22;51319;52.162;5.302;2022-08-21T03:51:51;14.40;91.90
43999;DHT22;51319;52.162;5.302;2022-08-21T03:54:25;14.40;91.90
43999;DHT22;51319;52.162;5.302;2022-08-21T03:56:54;14.40;92.00
43999;DHT22;51319;52.162;5.302;2022-08-21T03:59:21;14.30;92.00
43999;DHT22;51319;52.162;5.302;2022-08-21T04:01:56;14.30;92.00
43999;DHT22;51319;52.162;5.302;2022-08-21T04:04:23;14.30;92.10
43999;DHT22;51319;52.162;5.302;2022-08-21T04:06:49;14.30;92.20
43999;DHT22;51319;52.162;5.302;2022-08-21T04:09:16;14.30;92.20
43999;DHT22;51319;52.162;5.302;2022-08-21T04:11:43;14.30;92.30
43999;DHT22;51319;52.162;5.302;2022-08-21T04:14:09;14.20;92.30
43999;DHT22;51319;52.162;5.302;2022-08-21T04:16:35;14.20;92.30
43999;DHT22;51319;52.162;5.302;2022-08-21T04:19:01;14.30;92.40
43999;DHT22;51319;52.162;5.302;2022-08-21T04:21:29;14.30;92.50
43999;DHT22;51319;52.162;5.302;2022-08-21T04:23:56;14.20;92.50
43999;DHT22;51319;52.162;5.302;2022-08-21T04:26:23;14.20;92.50
43999;DHT22;51319;52.162;5.302;2022-08-21T04:28:49;14.20;92.60
43999;DHT22;51319;52.162;5.302;2022-08-21T04:31:16;14.20;92.60
43999;DHT22;51319;52.162;5.302;2022-08-21T04:33:42;14.10;92.70
43999;DHT22;51319;52.162;5.302;2022-08-21T04:36:08;14.10;92.70
43999;DHT22;51319;52.162;5.302;2022-08-21T04:38:35;14.10;92.80
43999;DHT22;51319;52.162;5.302;2022-08-21T04:41:04;14.10;92.90
43999;DHT22;51319;52.162;5.302;2022-08-21T04:43:32;14.20;92.90
43999;DHT22;51319;52.162;5.302;2022-08-21T04:45:58;14.20;92.90
43999;DHT22;51319;52.162;5.302;2022-08-21T04:48:26;14.20;93.00
43999;DHT22;51319;52.162;5.302;2022-08-21T04:53:41;14.20;93.00
43999;DHT22;51319;52.162;5.302;2022-08-21T04:58:47;14.20;93.00
43999;DHT22;51319;52.162;5.302;2022-08-21T05:01:19;14.20;93.00
43999;DHT22;51319;52.162;5.302;2022-08-21T05:03:49;14.20;93.00
43999;DHT22;51319;52.162;5.302;2022-08-21T05:06:17;14.20;93.00
43999;DHT22;51319;52.162;5.302;2022-08-21T05:08:46;14.30;93.00
43999;DHT22;51319;52.162;5.302;2022-08-21T05:11:13;14.30;93.00
43999;DHT22;51319;52.162;5.302;2022-08-21T05:13:39;14.30;92.90
43999;DHT22;51319;52.162;5.302;2022-08-21T05:16:07;14.40;93.20
43999;DHT22;51319;52.162;5.302;2022-08-21T05:18:34;14.40;92.90
43999;DHT22;51319;52.162;5.302;2022-08-21T05:21:00;14.50;92.90
43999;DHT22;51319;52.162;5.302;2022-08-21T05:23:26;14.50;92.80
43999;DHT22;51319;52.162;5.302;2022-08-21T05:25:53;14.60;92.80
43999;DHT22;51319;52.162;5.302;2022-08-21T05:28:21;14.70;92.80
43999;DHT22;51319;52.162;5.302;2022-08-21T05:30:47;14.70;92.60
43999;DHT22;51319;52.162;5.302;2022-08-21T05:33:13;14.80;92.60
43999;DHT22;51319;52.162;5.302;2022-08-21T05:35:40;14.80;92.50
43999;DHT22;51319;52.162;5.302;2022-08-21T05:38:06;14.80;92.50
43999;DHT22;51319;52.162;5.302;2022-08-21T05:40:43;14.90;92.50
43999;DHT22;51319;52.162;5.302;2022-08-21T05:43:09;15.00;92.40
43999;DHT22;51319;52.162;5.302;2022-08-21T05:45:36;15.10;92.40
43999;DHT22;51319;52.162;5.302;2022-08-21T05:48:15;15.10;92.40
43999;DHT22;51319;52.162;5.302;2022-08-21T05:50:42;15.20;92.30
43999;DHT22;51319;52.162;5.302;2022-08-21T05:53:09;15.40;92.40
43999;DHT22;51319;52.162;5.302;2022-08-21T05:55:37;16.10;92.00
43999;DHT22;51319;52.162;5.302;2022-08-21T05:58:11;16.70;91.10
43999;DHT22;51319;52.162;5.302;2022-08-21T06:00:37;17.20;90.10
43999;DHT22;51319;52.162;5.302;2022-08-21T06:03:04;17.70;88.70
43999;DHT22;51319;52.162;5.302;2022-08-21T06:05:30;18.00;86.70
43999;DHT22;51319;52.162;5.302;2022-08-21T06:08:03;18.40;85.20
43999;DHT22;51319;52.162;5.302;2022-08-21T06:10:30;18.70;83.50
43999;DHT22;51319;52.162;5.302;2022-08-21T06:12:56;19.10;81.90
43999;DHT22;51319;52.162;5.302;2022-08-21T06:15:23;19.40;80.60
43999;DHT22;51319;52.162;5.302;2022-08-21T06:17:49;19.60;79.30
43999;DHT22;51319;52.162;5.302;2022-08-21T06:20:15;19.90;78.00
43999;DHT22;51319;52.162;5.302;2022-08-21T06:22:42;20.20;76.70
43999;DHT22;51319;52.162;5.302;2022-08-21T06:25:08;20.50;75.60
43999;DHT22;51319;52.162;5.302;2022-08-21T06:27:35;20.70;74.50
43999;DHT22;51319;52.162;5.302;2022-08-21T06:30:02;21.00;73.60
43999;DHT22;51319;52.162;5.302;2022-08-21T06:32:29;21.30;72.30
43999;DHT22;51319;52.162;5.302;2022-08-21T06:34:55;21.50;71.40
43999;DHT22;51319;52.162;5.302;2022-08-21T06:37:21;21.80;70.50
43999;DHT22;51319;52.162;5.302;2022-08-21T06:39:48;22.10;69.60
43999;DHT22;51319;52.162;5.302;2022-08-21T06:42:16;22.40;68.80
43999;DHT22;51319;52.162;5.302;2022-08-21T06:44:43;22.70;67.70
43999;DHT22;51319;52.162;5.302;2022-08-21T06:47:11;23.00;66.60
43999;DHT22;51319;52.162;5.302;2022-08-21T06:49:38;23.30;65.80
43999;DHT22;51319;52.162;5.302;2022-08-21T06:52:09;23.60;65.00
43999;DHT22;51319;52.162;5.302;2022-08-21T06:54:38;23.80;64.00
43999;DHT22;51319;52.162;5.302;2022-08-21T06:57:05;24.20;63.10
43999;DHT22;51319;52.162;5.302;2022-08-21T06:59:31;24.40;62.30
43999;DHT22;51319;52.162;5.302;2022-08-21T07:01:59;24.70;61.80
43999;DHT22;51319;52.162;5.302;2022-08-21T07:04:26;25.10;61.00
43999;DHT22;51319;52.162;5.302;2022-08-21T07:06:52;25.40;60.20
43999;DHT22;51319;52.162;5.302;2022-08-21T07:09:18;25.80;59.30
43999;DHT22;51319;52.162;5.302;2022-08-21T07:11:50;26.10;58.50
43999;DHT22;51319;52.162;5.302;2022-08-21T07:14:17;26.50;58.90
43999;DHT22;51319;52.162;5.302;2022-08-21T07:16:46;26.70;57.10
43999;DHT22;51319;52.162;5.302;2022-08-21T07:19:13;26.90;56.70
43999;DHT22;51319;52.162;5.302;2022-08-21T07:21:39;27.20;55.90
43999;DHT22;51319;52.162;5.302;2022-08-21T07:24:05;27.60;55.20
43999;DHT22;51319;52.162;5.302;2022-08-21T07:26:31;27.80;54.50
43999;DHT22;51319;52.162;5.302;2022-08-21T07:28:57;28.10;53.90
43999;DHT22;51319;52.162;5.302;2022-08-21T07:31:24;28.40;53.80
43999;DHT22;51319;52.162;5.302;2022-08-21T07:33:51;28.70;52.90
43999;DHT22;51319;52.162;5.302;2022-08-21T07:36:17;29.00;52.20
43999;DHT22;51319;52.162;5.302;2022-08-21T07:38:44;29.30;51.70
43999;DHT22;51319;52.162;5.302;2022-08-21T07:41:17;29.70;51.30
43999;DHT22;51319;52.162;5.302;2022-08-21T07:43:44;30.10;50.10
43999;DHT22;51319;52.162;5.302;2022-08-21T07:46:12;30.30;49.30
43999;DHT22;51319;52.162;5.302;2022-08-21T07:48:39;30.60;49.10
43999;DHT22;51319;52.162;5.302;2022-08-21T07:51:08;30.80;48.60
43999;DHT22;51319;52.162;5.302;2022-08-21T07:53:36;31.00;47.60
43999;DHT22;51319;52.162;5.302;2022-08-21T07:56:04;31.20;47.60
43999;DHT22;51319;52.162;5.302;2022-08-21T07:58:31;31.50;46.90
43999;DHT22;51319;52.162;5.302;2022-08-21T08:00:59;31.80;46.50
43999;DHT22;51319;52.162;5.302;2022-08-21T08:03:26;31.90;46.50
43999;DHT22;51319;52.162;5.302;2022-08-21T08:05:55;32.30;45.80
43999;DHT22;51319;52.162;5.302;2022-08-21T08:08:22;32.60;45.00
43999;DHT22;51319;52.162;5.302;2022-08-21T08:10:48;32.80;44.80
43999;DHT22;51319;52.162;5.302;2022-08-21T08:13:16;33.00;44.30
43999;DHT22;51319;52.162;5.302;2022-08-21T08:15:42;33.10;44.40
43999;DHT22;51319;52.162;5.302;2022-08-21T08:18:09;33.40;43.80
43999;DHT22;51319;52.162;5.302;2022-08-21T08:20:35;33.90;43.30
43999;DHT22;51319;52.162;5.302;2022-08-21T08:23:02;34.10;42.30
43999;DHT22;51319;52.162;5.302;2022-08-21T08:25:28;34.30;42.10
43999;DHT22;51319;52.162;5.302;2022-08-21T08:28:03;34.60;41.80
43999;DHT22;51319;52.162;5.302;2022-08-21T08:30:44;34.80;41.50
43999;DHT22;51319;52.162;5.302;2022-08-21T08:33:10;35.00;41.00
43999;DHT22;51319;52.162;5.302;2022-08-21T08:35:37;35.10;40.60
43999;DHT22;51319;52.162;5.302;2022-08-21T08:38:05;35.40;40.40
43999;DHT22;51319;52.162;5.302;2022-08-21T08:41:22;34.40;40.40
43999;DHT22;51319;52.162;5.302;2022-08-21T08:43:52;33.80;42.50
43999;DHT22;51319;52.162;5.302;2022-08-21T08:46:42;34.60;42.00
43999;DHT22;51319;52.162;5.302;2022-08-21T08:49:34;35.50;41.10
43999;DHT22;51319;52.162;5.302;2022-08-21T08:54:37;36.70;39.20
43999;DHT22;51319;52.162;5.302;2022-08-21T08:57:10;37.00;38.40
43999;DHT22;51319;52.162;5.302;2022-08-21T08:59:41;37.40;38.20
43999;DHT22;51319;52.162;5.302;2022-08-21T09:02:13;37.80;37.20
43999;DHT22;51319;52.162;5.302;2022-08-21T09:04:40;38.10;36.80
43999;DHT22;51319;52.162;5.302;2022-08-21T09:10:05;38.50;35.50
43999;DHT22;51319;52.162;5.302;2022-08-21T09:15:34;39.00;36.40
43999;DHT22;51319;52.162;5.302;2022-08-21T09:24:01;38.20;34.50
43999;DHT22;51319;52.162;5.302;2022-08-21T09:26:42;35.90;36.40
43999;DHT22;51319;52.162;5.302;2022-08-21T09:29:11;34.30;38.80
43999;DHT22;51319;52.162;5.302;2022-08-21T09:31:38;34.30;40.20
43999;DHT22;51319;52.162;5.302;2022-08-21T09:34:08;35.50;39.40
43999;DHT22;51319;52.162;5.302;2022-08-21T09:37:01;36.10;38.40
43999;DHT22;51319;52.162;5.302;2022-08-21T09:39:30;34.90;38.50
43999;DHT22;51319;52.162;5.302;2022-08-21T09:42:07;33.70;39.60
43999;DHT22;51319;52.162;5.302;2022-08-21T09:44:38;33.10;41.40
43999;DHT22;51319;52.162;5.302;2022-08-21T09:47:11;32.70;41.30
43999;DHT22;51319;52.162;5.302;2022-08-21T09:49:42;32.50;42.00
43999;DHT22;51319;52.162;5.302;2022-08-21T09:52:22;32.20;42.60
43999;DHT22;51319;52.162;5.302;2022-08-21T09:54:50;31.70;42.80
43999;DHT22;51319;52.162;5.302;2022-08-21T09:57:23;31.00;43.30
43999;DHT22;51319;52.162;5.302;2022-08-21T10:02:42;29.80;45.50
43999;DHT22;51319;52.162;5.302;2022-08-21T10:05:18;29.80;46.80
43999;DHT22;51319;52.162;5.302;2022-08-21T10:07:50;30.70;46.10
43999;DHT22;51319;52.162;5.302;2022-08-21T10:10:24;32.10;43.90
43999;DHT22;51319;52.162;5.302;2022-08-21T10:13:14;32.30;43.20
43999;DHT22;51319;52.162;5.302;2022-08-21T10:15:54;31.70;43.00
43999;DHT22;51319;52.162;5.302;2022-08-21T10:21:21;31.90;43.10
43999;DHT22;51319;52.162;5.302;2022-08-21T10:24:08;32.10;42.60
43999;DHT22;51319;52.162;5.302;2022-08-21T10:27:13;31.40;43.50
43999;DHT22;51319;52.162;5.302;2022-08-21T10:29:50;30.70;44.20
43999;DHT22;51319;52.162;5.302;2022-08-21T10:48:58;37.10;35.60
43999;DHT22;51319;52.162;5.302;2022-08-21T10:51:39;38.40;35.10
43999;DHT22;51319;52.162;5.302;2022-08-21T10:56:36;39.20;34.50
43999;DHT22;51319;52.162;5.302;2022-08-21T11:01:57;37.80;33.70
43999;DHT22;51319;52.162;5.302;2022-08-21T11:04:35;36.70;35.20
43999;DHT22;51319;52.162;5.302;2022-08-21T11:07:28;35.80;35.90
43999;DHT22;51319;52.162;5.302;2022-08-21T11:10:25;34.80;36.80
43999;DHT22;51319;52.162;5.302;2022-08-21T11:13:13;33.80;38.50
43999;DHT22;51319;52.162;5.302;2022-08-21T11:15:52;32.80;39.20
43999;DHT22;51319;52.162;5.302;2022-08-21T11:18:36;32.00;40.10
43999;DHT22;51319;52.162;5.302;2022-08-21T11:21:18;31.50;41.60
43999;DHT22;51319;52.162;5.302;2022-08-21T11:26:57;30.90;41.70
43999;DHT22;51319;52.162;5.302;2022-08-21T11:29:34;30.60;42.90
43999;DHT22;51319;52.162;5.302;2022-08-21T11:43:52;33.00;41.40
43999;DHT22;51319;52.162;5.302;2022-08-21T11:46:44;33.40;40.60
43999;DHT22;51319;52.162;5.302;2022-08-21T11:50:10;33.30;40.10
43999;DHT22;51319;52.162;5.302;2022-08-21T11:52:32;33.90;39.60
43999;DHT22;51319;52.162;5.302;2022-08-21T11:57:40;36.30;37.20
43999;DHT22;51319;52.162;5.302;2022-08-21T12:00:31;37.00;36.30
43999;DHT22;51319;52.162;5.302;2022-08-21T12:03:25;37.90;35.20
43999;DHT22;51319;52.162;5.302;2022-08-21T12:05:55;38.60;34.70
43999;DHT22;51319;52.162;5.302;2022-08-21T12:11:07;38.20;33.70
43999;DHT22;51319;52.162;5.302;2022-08-21T12:13:51;38.60;33.80
43999;DHT22;51319;52.162;5.302;2022-08-21T12:19:08;40.00;32.90
43999;DHT22;51319;52.162;5.302;2022-08-21T12:24:37;40.70;30.20
43999;DHT22;51319;52.162;5.302;2022-08-21T12:27:29;40.90;30.70
43999;DHT22;51319;52.162;5.302;2022-08-21T12:30:05;40.60;30.70
43999;DHT22;51319;52.162;5.302;2022-08-21T12:32:45;39.80;30.90
43999;DHT22;51319;52.162;5.302;2022-08-21T12:35:26;39.20;31.70
43999;DHT22;51319;52.162;5.302;2022-08-21T12:38:07;38.80;31.90
43999;DHT22;51319;52.162;5.302;2022-08-21T12:43:18;36.60;33.80
43999;DHT22;51319;52.162;5.302;2022-08-21T12:45:49;36.20;34.50
43999;DHT22;51319;52.162;5.302;2022-08-21T12:48:56;35.90;35.00
43999;DHT22;51319;52.162;5.302;2022-08-21T12:51:28;36.90;34.50
43999;DHT22;51319;52.162;5.302;2022-08-21T12:53:58;37.60;33.80
43999;DHT22;51319;52.162;5.302;2022-08-21T12:56:31;37.70;33.40
43999;DHT22;51319;52.162;5.302;2022-08-21T12:59:06;38.10;33.70
43999;DHT22;51319;52.162;5.302;2022-08-21T13:01:46;38.50;34.00
43999;DHT22;51319;52.162;5.302;2022-08-21T13:04:18;37.80;32.70
43999;DHT22;51319;52.162;5.302;2022-08-21T13:06:49;37.40;33.80
43999;DHT22;51319;52.162;5.302;2022-08-21T13:09:20;37.70;34.10
43999;DHT22;51319;52.162;5.302;2022-08-21T13:11:50;38.00;33.80
43999;DHT22;51319;52.162;5.302;2022-08-21T13:16:55;37.10;33.10
43999;DHT22;51319;52.162;5.302;2022-08-21T13:30:49;34.90;36.20
43999;DHT22;51319;52.162;5.302;2022-08-21T13:33:18;34.50;37.10
43999;DHT22;51319;52.162;5.302;2022-08-21T13:38:13;35.30;35.90
43999;DHT22;51319;52.162;5.302;2022-08-21T13:40:46;35.30;35.70
43999;DHT22;51319;52.162;5.302;2022-08-21T13:43:26;35.20;36.50
43999;DHT22;51319;52.162;5.302;2022-08-21T13:45:56;35.20;36.40
43999;DHT22;51319;52.162;5.302;2022-08-21T13:48:25;35.20;36.70
43999;DHT22;51319;52.162;5.302;2022-08-21T13:50:52;35.20;36.60
43999;DHT22;51319;52.162;5.302;2022-08-21T13:56:31;34.30;36.90
43999;DHT22;51319;52.162;5.302;2022-08-21T13:59:00;33.90;38.20
43999;DHT22;51319;52.162;5.302;2022-08-21T14:01:32;33.70;38.10
43999;DHT22;51319;52.162;5.302;2022-08-21T14:04:07;33.60;38.60
43999;DHT22;51319;52.162;5.302;2022-08-21T14:06:41;33.20;38.80
43999;DHT22;51319;52.162;5.302;2022-08-21T14:09:31;32.90;38.30
43999;DHT22;51319;52.162;5.302;2022-08-21T14:12:04;32.50;39.00
43999;DHT22;51319;52.162;5.302;2022-08-21T14:14:48;32.20;39.80
43999;DHT22;51319;52.162;5.302;2022-08-21T14:17:33;32.00;39.90
43999;DHT22;51319;52.162;5.302;2022-08-21T14:20:06;31.80;40.40
43999;DHT22;51319;52.162;5.302;2022-08-21T14:27:57;31.30;40.60
43999;DHT22;51319;52.162;5.302;2022-08-21T14:30:35;31.10;41.90
43999;DHT22;51319;52.162;5.302;2022-08-21T14:33:07;30.80;42.00
43999;DHT22;51319;52.162;5.302;2022-08-21T14:35:34;30.50;42.50
43999;DHT22;51319;52.162;5.302;2022-08-21T14:38:01;30.30;42.20
43999;DHT22;51319;52.162;5.302;2022-08-21T14:40:28;30.10;42.80
43999;DHT22;51319;52.162;5.302;2022-08-21T14:42:54;29.90;43.80
43999;DHT22;51319;52.162;5.302;2022-08-21T14:45:29;29.80;44.30
43999;DHT22;51319;52.162;5.302;2022-08-21T14:47:57;29.60;44.10
43999;DHT22;51319;52.162;5.302;2022-08-21T14:50:24;29.50;44.50
43999;DHT22;51319;52.162;5.302;2022-08-21T14:52:54;29.30;43.90
43999;DHT22;51319;52.162;5.302;2022-08-21T14:55:20;29.30;43.90
43999;DHT22;51319;52.162;5.302;2022-08-21T14:57:51;29.10;44.30
43999;DHT22;51319;52.162;5.302;2022-08-21T15:00:21;29.00;45.20
43999;DHT22;51319;52.162;5.302;2022-08-21T15:03:01;29.00;45.40
43999;DHT22;51319;52.162;5.302;2022-08-21T15:05:30;28.90;45.40
43999;DHT22;51319;52.162;5.302;2022-08-21T15:08:00;28.80;45.30
43999;DHT22;51319;52.162;5.302;2022-08-21T15:10:28;28.80;45.80
43999;DHT22;51319;52.162;5.302;2022-08-21T15:12:56;28.80;46.70
43999;DHT22;51319;52.162;5.302;2022-08-21T15:15:23;28.70;46.30
43999;DHT22;51319;52.162;5.302;2022-08-21T15:17:49;28.70;46.20
43999;DHT22;51319;52.162;5.302;2022-08-21T15:20:16;28.60;46.70
43999;DHT22;51319;52.162;5.302;2022-08-21T15:22:42;28.40;46.00
43999;DHT22;51319;52.162;5.302;2022-08-21T15:25:13;28.30;46.80
43999;DHT22;51319;52.162;5.302;2022-08-21T15:27:40;28.10;47.10
43999;DHT22;51319;52.162;5.302;2022-08-21T15:30:07;28.00;47.30
43999;DHT22;51319;52.162;5.302;2022-08-21T15:32:34;27.80;47.20
43999;DHT22;51319;52.162;5.302;2022-08-21T15:35:00;27.60;48.20
43999;DHT22;51319;52.162;5.302;2022-08-21T15:37:27;27.50;48.90
43999;DHT22;51319;52.162;5.302;2022-08-21T15:39:54;27.30;48.70
43999;DHT22;51319;52.162;5.302;2022-08-21T15:42:21;27.20;49.10
43999;DHT22;51319;52.162;5.302;2022-08-21T15:44:50;27.10;49.10
43999;DHT22;51319;52.162;5.302;2022-08-21T15:47:25;27.00;49.80
43999;DHT22;51319;52.162;5.302;2022-08-21T15:49:52;26.90;49.20
43999;DHT22;51319;52.162;5.302;2022-08-21T15:52:20;26.90;50.60
43999;DHT22;51319;52.162;5.302;2022-08-21T15:54:47;26.90;49.80
43999;DHT22;51319;52.162;5.302;2022-08-21T15:57:16;26.80;49.20
43999;DHT22;51319;52.162;5.302;2022-08-21T15:59:46;26.70;49.50
43999;DHT22;51319;52.162;5.302;2022-08-21T16:02:23;26.80;49.90
43999;DHT22;51319;52.162;5.302;2022-08-21T16:04:52;26.70;50.40
43999;DHT22;51319;52.162;5.302;2022-08-21T16:07:19;26.70;50.20
43999;DHT22;51319;52.162;5.302;2022-08-21T16:09:46;26.60;50.60
43999;DHT22;51319;52.162;5.302;2022-08-21T16:12:22;26.60;51.10
43999;DHT22;51319;52.162;5.302;2022-08-21T16:14:51;26.60;51.00
43999;DHT22;51319;52.162;5.302;2022-08-21T16:17:18;26.60;51.30
43999;DHT22;51319;52.162;5.302;2022-08-21T16:19:45;26.50;50.90
43999;DHT22;51319;52.162;5.302;2022-08-21T16:22:12;26.40;51.70
43999;DHT22;51319;52.162;5.302;2022-08-21T16:24:39;26.30;51.30
43999;DHT22;51319;52.162;5.302;2022-08-21T16:27:06;26.20;51.50
43999;DHT22;51319;52.162;5.302;2022-08-21T16:29:35;26.10;51.70
43999;DHT22;51319;52.162;5.302;2022-08-21T16:32:05;25.90;52.40
43999;DHT22;51319;52.162;5.302;2022-08-21T16:34:32;25.90;53.00
43999;DHT22;51319;52.162;5.302;2022-08-21T16:36:59;25.90;52.80
43999;DHT22;51319;52.162;5.302;2022-08-21T16:39:26;25.90;53.00
43999;DHT22;51319;52.162;5.302;2022-08-21T16:41:53;25.90;52.50
43999;DHT22;51319;52.162;5.302;2022-08-21T16:44:20;25.80;52.70
43999;DHT22;51319;52.162;5.302;2022-08-21T16:46:48;25.80;53.20
43999;DHT22;51319;52.162;5.302;2022-08-21T16:49:14;25.80;53.20
43999;DHT22;51319;52.162;5.302;2022-08-21T16:51:41;25.70;52.70
43999;DHT22;51319;52.162;5.302;2022-08-21T16:54:09;25.70;52.90
43999;DHT22;51319;52.162;5.302;2022-08-21T16:56:38;25.70;52.20
43999;DHT22;51319;52.162;5.302;2022-08-21T16:59:09;25.60;51.90
43999;DHT22;51319;52.162;5.302;2022-08-21T17:01:36;25.60;52.00
43999;DHT22;51319;52.162;5.302;2022-08-21T17:04:03;25.60;52.70
43999;DHT22;51319;52.162;5.302;2022-08-21T17:06:31;25.50;51.80
43999;DHT22;51319;52.162;5.302;2022-08-21T17:08:58;25.50;51.80
43999;DHT22;51319;52.162;5.302;2022-08-21T17:11:30;25.40;52.00
43999;DHT22;51319;52.162;5.302;2022-08-21T17:14:12;25.30;52.40
43999;DHT22;51319;52.162;5.302;2022-08-21T17:16:46;25.20;52.80
43999;DHT22;51319;52.162;5.302;2022-08-21T17:19:13;25.20;52.60
43999;DHT22;51319;52.162;5.302;2022-08-21T17:21:40;25.00;52.40
43999;DHT22;51319;52.162;5.302;2022-08-21T17:24:07;24.90;53.20
43999;DHT22;51319;52.162;5.302;2022-08-21T17:26:33;24.80;53.40
43999;DHT22;51319;52.162;5.302;2022-08-21T17:28:59;24.80;53.70
43999;DHT22;51319;52.162;5.302;2022-08-21T17:31:26;24.70;53.70
43999;DHT22;51319;52.162;5.302;2022-08-21T17:33:53;24.60;54.30